createdAt,value
2022-08-26T00:00:44.442Z,24.38
2022-08-26T00:03:11.927Z,19.98
2022-08-26T00:05:38.764Z,18.58
2022-08-26T00:08:05.223Z,22.52
2022-08-26T00:10:31.703Z,21.52
2022-08-26T00:12:58.162Z,17.30
2022-08-26T00:15:24.633Z,20.42
2022-08-26T00:17:51.104Z,21.45
2022-08-26T00:20:17.581Z,17.65
2022-08-26T00:22:44.040Z,17.52
2022-08-26T00:25:10.520Z,16.67
2022-08-26T00:27:36.973Z,22.25
2022-08-26T00:30:05.037Z,23.20
2022-08-26T00:32:32.186Z,23.17
2022-08-26T00:35:01.040Z,20.58
2022-08-26T00:37:28.301Z,19.10
2022-08-26T00:39:54.804Z,19.65
2022-08-26T00:42:21.319Z,18.02
2022-08-26T00:44:48.512Z,15.73
2022-08-26T00:47:17.229Z,17.48
2022-08-26T00:49:43.713Z,17.98
2022-08-26T00:52:12.063Z,21.75
2022-08-26T00:54:39.559Z,19.20
2022-08-26T00:57:16.529Z,15.77
2022-08-26T00:59:43.201Z,18.08
2022-08-26T01:02:09.729Z,13.77
2022-08-26T01:04:47.510Z,17.45
2022-08-26T01:07:13.986Z,22.50
2022-08-26T01:09:40.445Z,26.83
2022-08-26T01:12:07.265Z,29.75
2022-08-26T01:14:33.748Z,20.15
2022-08-26T01:17:00.217Z,20.55
2022-08-26T01:19:26.729Z,20.63
2022-08-26T01:21:53.199Z,18.60
2022-08-26T01:24:19.704Z,21.80
2022-08-26T01:26:46.189Z,21.98
2022-08-26T01:29:12.660Z,18.40
2022-08-26T01:31:39.222Z,20.05
2022-08-26T01:34:05.718Z,19.45
2022-08-26T01:36:32.240Z,20.88
2022-08-26T01:38:58.700Z,17.85
2022-08-26T01:41:27.163Z,21.13
2022-08-26T01:43:55.466Z,20.33
2022-08-26T01:46:21.945Z,13.60
2022-08-26T01:48:48.658Z,16.55
2022-08-26T01:51:20.810Z,15.27
2022-08-26T01:53:47.365Z,14.40
2022-08-26T01:56:13.847Z,19.52
2022-08-26T01:58:40.310Z,22.15
2022-08-26T02:01:06.819Z,18.65
2022-08-26T02:03:36.213Z,13.48
2022-08-26T02:06:05.228Z,11.25
2022-08-26T02:08:35.710Z,17.08
2022-08-26T02:11:02.166Z,12.27
2022-08-26T02:13:28.647Z,17.60
2022-08-26T02:15:55.153Z,14.05
2022-08-26T02:18:21.663Z,14.90
2022-08-26T02:20:51.707Z,14.07
2022-08-26T02:23:18.272Z,15.10
2022-08-26T02:25:44.740Z,12.80
2022-08-26T02:28:11.217Z,17.05
2022-08-26T02:30:37.688Z,11.10
2022-08-26T02:33:04.642Z,14.57
2022-08-26T02:35:31.112Z,17.42
2022-08-26T02:37:58.141Z,12.68
2022-08-26T02:40:24.649Z,12.35
2022-08-26T02:42:52.898Z,14.52
2022-08-26T02:45:23.160Z,10.90
2022-08-26T02:47:50.245Z,12.80
2022-08-26T02:50:16.852Z,12.13
2022-08-26T02:52:44.156Z,13.27
2022-08-26T02:55:10.619Z,13.60
2022-08-26T02:57:37.085Z,10.30
2022-08-26T03:00:04.323Z,10.95
2022-08-26T03:02:30.796Z,9.68
2022-08-26T03:04:57.744Z,11.10
2022-08-26T03:07:28.587Z,11.52
2022-08-26T03:09:56.123Z,14.60
2022-08-26T03:12:23.104Z,8.70
2022-08-26T03:14:49.565Z,10.30
2022-08-26T03:17:16.044Z,14.68
2022-08-26T03:19:42.519Z,9.35
2022-08-26T03:22:08.999Z,12.18
2022-08-26T03:24:37.429Z,10.35
2022-08-26T03:27:05.945Z,8.77
2022-08-26T03:29:33.877Z,6.13
2022-08-26T03:32:00.337Z,9.95
2022-08-26T03:34:26.807Z,7.40
2022-08-26T03:36:54.253Z,4.60
2022-08-26T03:39:20.723Z,7.53
2022-08-26T03:41:47.920Z,6.30
2022-08-26T03:44:14.390Z,8.68
2022-08-26T03:46:41.109Z,6.57
2022-08-26T03:49:09.912Z,5.13
2022-08-26T03:51:38.877Z,6.65
2022-08-26T03:54:05.544Z,7.68
2022-08-26T03:56:34.853Z,6.57
2022-08-26T03:59:01.627Z,5.53
2022-08-26T04:01:28.549Z,9.63
2022-08-26T04:03:55.616Z,6.60
2022-08-26T04:06:22.208Z,6.75
2022-08-26T04:08:48.701Z,3.53
2022-08-26T04:11:15.164Z,5.05
2022-08-26T04:13:41.832Z,6.75
2022-08-26T04:16:08.534Z,5.13
2022-08-26T04:18:37.277Z,4.32
2022-08-26T04:21:07.877Z,5.30
2022-08-26T04:23:34.527Z,3.45
2022-08-26T04:26:14.324Z,4.53
2022-08-26T04:28:40.794Z,5.00
2022-08-26T04:31:07.317Z,4.90
2022-08-26T04:33:34.138Z,3.83
2022-08-26T04:36:08.255Z,9.05
2022-08-26T04:38:34.871Z,4.25
2022-08-26T04:41:01.625Z,8.93
2022-08-26T04:43:28.100Z,7.03
2022-08-26T04:45:54.793Z,6.18
2022-08-26T04:48:21.262Z,5.55
2022-08-26T04:50:49.615Z,3.88
2022-08-26T04:53:16.182Z,4.40
2022-08-26T04:55:45.023Z,5.45
2022-08-26T04:58:11.646Z,6.07
2022-08-26T05:00:38.107Z,5.07
2022-08-26T05:03:04.611Z,4.50
2022-08-26T05:05:32.087Z,6.13
2022-08-26T05:07:58.649Z,6.03
2022-08-26T05:10:25.115Z,6.63
2022-08-26T05:12:53.138Z,6.03
2022-08-26T05:15:20.104Z,5.55
2022-08-26T05:17:46.568Z,3.03
2022-08-26T05:20:13.287Z,3.45
2022-08-26T05:22:39.746Z,4.38
2022-08-26T05:25:07.102Z,5.55
2022-08-26T05:27:33.563Z,5.57
2022-08-26T05:30:00.030Z,3.55
2022-08-26T05:32:27.599Z,3.53
2022-08-26T05:34:55.663Z,2.70
2022-08-26T05:37:22.211Z,3.42
2022-08-26T05:39:51.223Z,1.52
2022-08-26T05:42:17.972Z,4.95
2022-08-26T05:44:53.884Z,4.55
2022-08-26T05:47:22.325Z,4.40
2022-08-26T05:49:51.574Z,4.35
2022-08-26T05:52:18.297Z,5.65
2022-08-26T05:54:45.596Z,3.22
2022-08-26T05:57:14.189Z,1.92
2022-08-26T05:59:40.754Z,2.33
2022-08-26T06:02:08.452Z,2.78
2022-08-26T06:04:35.242Z,4.13
2022-08-26T06:07:02.919Z,4.13
2022-08-26T06:09:31.902Z,1.73
2022-08-26T06:11:59.049Z,4.03
2022-08-26T06:14:25.520Z,3.25
2022-08-26T06:16:52.770Z,2.78
2022-08-26T06:19:19.465Z,2.63
2022-08-26T06:21:46.205Z,2.00
2022-08-26T06:24:12.726Z,4.03
2022-08-26T06:26:40.264Z,6.13
2022-08-26T06:29:09.314Z,4.30
2022-08-26T06:31:36.043Z,2.25
2022-08-26T06:34:03.684Z,1.80
2022-08-26T06:36:31.698Z,3.00
2022-08-26T06:38:58.312Z,2.75
2022-08-26T06:41:24.801Z,3.38
2022-08-26T06:43:51.620Z,3.78
2022-08-26T06:46:18.122Z,2.90
2022-08-26T06:48:44.785Z,5.47
2022-08-26T06:51:11.259Z,4.70
2022-08-26T06:53:37.749Z,1.83
2022-08-26T06:56:07.580Z,3.33
2022-08-26T06:58:35.767Z,4.57
2022-08-26T07:01:11.415Z,5.68
2022-08-26T07:03:39.713Z,6.07
2022-08-26T07:06:06.416Z,1.92
2022-08-26T07:08:33.756Z,3.97
2022-08-26T07:11:00.669Z,2.47
2022-08-26T07:13:30.648Z,4.57
2022-08-26T07:15:57.530Z,7.13
2022-08-26T07:18:29.293Z,4.35
2022-08-26T07:20:55.775Z,3.38
2022-08-26T07:23:22.595Z,7.57
2022-08-26T07:25:49.071Z,5.18
2022-08-26T07:28:15.744Z,3.33
2022-08-26T07:30:42.274Z,5.03
2022-08-26T07:33:09.292Z,6.63
2022-08-26T07:35:37.335Z,5.15
2022-08-26T07:38:03.797Z,5.78
2022-08-26T07:40:30.298Z,6.07
2022-08-26T07:42:56.806Z,8.48
2022-08-26T07:45:23.624Z,4.60
2022-08-26T07:47:50.121Z,5.18
2022-08-26T07:50:16.595Z,5.55
2022-08-26T07:52:43.049Z,7.43
2022-08-26T07:55:10.035Z,5.38
2022-08-26T07:57:36.494Z,4.88
2022-08-26T08:00:06.415Z,4.65
2022-08-26T08:02:32.874Z,6.15
2022-08-26T08:05:01.155Z,6.03
2022-08-26T08:07:44.620Z,6.68
2022-08-26T08:10:11.796Z,4.68
2022-08-26T08:12:39.213Z,3.90
2022-08-26T08:15:05.687Z,3.08
2022-08-26T08:17:32.141Z,2.78
2022-08-26T08:19:58.601Z,3.75
2022-08-26T08:22:25.071Z,5.90
2022-08-26T08:24:53.757Z,4.97
2022-08-26T08:27:23.746Z,4.05
2022-08-26T08:29:50.751Z,3.22
2022-08-26T08:32:18.677Z,4.38
2022-08-26T08:34:45.147Z,3.67
2022-08-26T08:37:11.640Z,3.40
2022-08-26T08:39:38.101Z,4.35
2022-08-26T08:42:04.695Z,4.55
2022-08-26T08:44:31.389Z,6.00
2022-08-26T08:46:58.002Z,6.72
2022-08-26T08:49:24.457Z,6.35
2022-08-26T08:51:50.930Z,4.55
2022-08-26T08:54:17.556Z,4.25
2022-08-26T08:56:48.464Z,4.53
2022-08-26T08:59:15.335Z,2.03
2022-08-26T09:01:41.827Z,3.70
2022-08-26T09:04:08.320Z,2.72
2022-08-26T09:06:35.143Z,4.93
2022-08-26T09:09:01.863Z,2.35
2022-08-26T09:11:28.337Z,4.63
2022-08-26T09:13:55.252Z,3.50
2022-08-26T09:16:21.758Z,2.50
2022-08-26T09:18:48.767Z,4.03
2022-08-26T09:21:15.220Z,6.35
2022-08-26T09:23:45.007Z,5.10
2022-08-26T09:26:13.520Z,6.55
2022-08-26T09:28:40.026Z,4.65
2022-08-26T09:31:10.683Z,2.63
2022-08-26T09:33:37.769Z,3.67
2022-08-26T09:36:04.247Z,6.63
2022-08-26T09:38:31.387Z,4.10
2022-08-26T09:40:59.206Z,7.07
2022-08-26T09:43:26.061Z,1.90
2022-08-26T09:45:54.885Z,2.25
2022-08-26T09:48:22.501Z,5.50
2022-08-26T09:50:49.697Z,1.73
2022-08-26T09:53:16.190Z,2.58
2022-08-26T09:55:42.659Z,2.05
2022-08-26T09:58:09.387Z,3.47
2022-08-26T10:00:38.447Z,2.55
2022-08-26T10:03:05.141Z,3.03
2022-08-26T10:05:31.613Z,2.03
2022-08-26T10:07:58.301Z,1.25
2022-08-26T10:10:26.185Z,3.15
2022-08-26T10:12:52.663Z,2.15
2022-08-26T10:15:19.127Z,3.90
2022-08-26T10:17:48.888Z,2.65
2022-08-26T10:20:23.160Z,3.88
2022-08-26T10:22:50.360Z,3.35
2022-08-26T10:25:18.209Z,2.00
2022-08-26T10:27:51.054Z,2.35
2022-08-26T10:30:19.824Z,3.47
2022-08-26T10:32:46.314Z,2.80
2022-08-26T10:35:12.769Z,2.47
2022-08-26T10:37:39.239Z,2.58
2022-08-26T10:40:05.754Z,2.47
2022-08-26T10:42:32.269Z,3.60
2022-08-26T10:44:58.872Z,4.70
2022-08-26T10:47:25.357Z,2.95
2022-08-26T10:49:51.827Z,3.72
2022-08-26T10:52:18.299Z,3.33
2022-08-26T10:54:44.789Z,3.13
2022-08-26T10:57:11.251Z,3.67
2022-08-26T10:59:37.732Z,2.88
2022-08-26T11:02:04.504Z,1.80
2022-08-26T11:04:31.276Z,3.38
2022-08-26T11:07:01.501Z,1.77
2022-08-26T11:09:28.879Z,3.97
2022-08-26T11:11:55.404Z,3.13
2022-08-26T11:14:28.405Z,4.88
2022-08-26T11:16:55.161Z,5.45
2022-08-26T11:19:21.687Z,3.70
2022-08-26T11:21:51.103Z,3.22
2022-08-26T11:24:17.577Z,2.80
2022-08-26T11:26:55.962Z,5.10
2022-08-26T11:29:23.127Z,3.17
2022-08-26T11:31:49.692Z,2.53
2022-08-26T11:34:16.163Z,3.65
2022-08-26T11:36:42.633Z,5.07
2022-08-26T11:39:10.104Z,2.65
2022-08-26T11:41:36.821Z,4.72
2022-08-26T11:44:03.973Z,3.15
2022-08-26T11:46:31.316Z,3.60
2022-08-26T11:48:58.661Z,3.45
2022-08-26T11:51:25.147Z,2.47
2022-08-26T11:53:51.619Z,3.22
2022-08-26T11:56:18.081Z,3.78
2022-08-26T11:58:47.934Z,2.67
2022-08-26T12:01:14.392Z,3.63
2022-08-26T12:03:43.643Z,3.33
2022-08-26T12:06:10.162Z,2.75
2022-08-26T12:08:40.757Z,2.05
2022-08-26T12:11:07.407Z,4.43
2022-08-26T12:13:34.353Z,3.05
2022-08-26T12:16:01.195Z,3.00
2022-08-26T12:18:29.413Z,1.48
2022-08-26T12:20:56.449Z,2.30
2022-08-26T12:23:22.977Z,3.30
2022-08-26T12:25:50.381Z,2.33
2022-08-26T12:28:17.569Z,2.95
2022-08-26T12:30:46.122Z,4.20
2022-08-26T12:33:22.458Z,3.03
2022-08-26T12:35:52.840Z,4.30
2022-08-26T12:38:21.592Z,2.78
2022-08-26T12:40:48.137Z,3.92
2022-08-26T12:43:14.681Z,2.97
2022-08-26T12:45:41.266Z,4.25
2022-08-26T12:48:08.018Z,2.50
2022-08-26T12:50:34.680Z,2.35
2022-08-26T12:53:01.210Z,4.10
2022-08-26T12:55:27.767Z,2.30
2022-08-26T12:57:54.300Z,0.95
2022-08-26T13:00:20.836Z,1.92
2022-08-26T13:02:55.081Z,1.90
2022-08-26T13:05:21.622Z,0.75
2022-08-26T13:07:48.156Z,1.58
2022-08-26T13:10:14.697Z,2.20
2022-08-26T13:12:41.234Z,2.17
2022-08-26T13:15:07.777Z,2.33
2022-08-26T13:17:34.320Z,0.95
2022-08-26T13:20:03.918Z,1.50
2022-08-26T13:22:31.035Z,0.65
2022-08-26T13:24:57.619Z,0.75
2022-08-26T13:27:24.157Z,0.80
2022-08-26T13:29:50.697Z,2.28
2022-08-26T13:32:17.398Z,1.38
2022-08-26T13:34:46.208Z,1.35
2022-08-26T13:37:15.894Z,1.40
2022-08-26T13:39:42.434Z,2.45
2022-08-26T13:42:08.964Z,2.10
2022-08-26T13:44:35.503Z,1.05
2022-08-26T13:47:02.051Z,1.90
2022-08-26T13:49:28.584Z,3.63
2022-08-26T13:51:55.125Z,3.70
2022-08-26T13:54:21.657Z,1.70
2022-08-26T13:56:48.200Z,2.97
2022-08-26T13:59:14.730Z,1.58
2022-08-26T14:01:41.273Z,1.73
2022-08-26T14:04:07.801Z,2.45
2022-08-26T14:06:34.346Z,1.60
2022-08-26T14:09:00.887Z,1.13
2022-08-26T14:11:27.438Z,2.17
2022-08-26T14:13:53.982Z,1.98
2022-08-26T14:16:20.603Z,4.70
2022-08-26T14:18:50.614Z,1.42
2022-08-26T14:21:17.511Z,1.27
2022-08-26T14:23:44.054Z,3.05
2022-08-26T14:26:10.606Z,2.78
2022-08-26T14:28:40.818Z,2.33
2022-08-26T14:31:07.384Z,3.50
2022-08-26T14:33:34.543Z,2.35
2022-08-26T14:36:01.081Z,0.77
2022-08-26T14:38:27.640Z,1.60
2022-08-26T14:40:54.172Z,2.55
2022-08-26T14:43:20.725Z,3.15
2022-08-26T14:45:47.259Z,2.45
2022-08-26T14:48:13.814Z,3.28
2022-08-26T14:50:40.341Z,2.58
2022-08-26T14:53:06.885Z,1.60
2022-08-26T14:55:33.442Z,2.63
2022-08-26T14:57:59.993Z,2.03
2022-08-26T15:00:26.529Z,3.13
2022-08-26T15:02:53.225Z,1.08
2022-08-26T15:05:19.881Z,2.08
2022-08-26T15:07:46.421Z,2.40
2022-08-26T15:10:12.955Z,1.33
2022-08-26T15:12:39.513Z,3.25
2022-08-26T15:15:06.053Z,3.28
2022-08-26T15:17:32.603Z,2.08
2022-08-26T15:19:59.140Z,2.90
2022-08-26T15:22:25.722Z,3.03
2022-08-26T15:24:56.341Z,1.70
2022-08-26T15:27:22.923Z,1.60
2022-08-26T15:29:49.461Z,1.55
2022-08-26T15:32:16.002Z,2.50
2022-08-26T15:34:42.548Z,1.75
2022-08-26T15:37:09.084Z,1.65
2022-08-26T15:39:35.624Z,2.53
2022-08-26T15:42:02.177Z,1.48
2022-08-26T15:44:28.764Z,1.40
2022-08-26T15:46:58.441Z,1.85
2022-08-26T15:49:25.429Z,1.77
2022-08-26T15:51:51.974Z,1.65
2022-08-26T15:54:18.549Z,1.25
2022-08-26T15:56:45.087Z,1.92
2022-08-26T15:59:11.825Z,1.67
2022-08-26T16:01:38.567Z,1.10
2022-08-26T16:04:05.167Z,3.45
2022-08-26T16:06:31.709Z,1.38
2022-08-26T16:08:58.262Z,1.88
2022-08-26T16:11:24.794Z,2.20
2022-08-26T16:13:51.370Z,1.75
2022-08-26T16:16:17.978Z,2.30
2022-08-26T16:18:44.650Z,3.05
2022-08-26T16:21:13.274Z,1.73
2022-08-26T16:23:40.393Z,2.40
2022-08-26T16:26:10.694Z,3.85
2022-08-26T16:28:37.367Z,2.33
2022-08-26T16:31:04.836Z,3.10
2022-08-26T16:33:31.361Z,3.40
2022-08-26T16:35:57.899Z,2.70
2022-08-26T16:38:24.456Z,3.30
2022-08-26T16:40:50.990Z,2.92
2022-08-26T16:43:17.532Z,2.08
2022-08-26T16:45:44.070Z,2.92
2022-08-26T16:48:10.749Z,3.58
2022-08-26T16:50:37.393Z,2.03
2022-08-26T16:53:03.962Z,2.95
2022-08-26T16:55:31.866Z,1.58
2022-08-26T16:57:58.419Z,0.90
2022-08-26T17:00:24.972Z,4.03
2022-08-26T17:02:51.594Z,2.50
2022-08-26T17:05:18.170Z,3.30
2022-08-26T17:07:44.701Z,1.77
2022-08-26T17:10:11.292Z,1.95
2022-08-26T17:12:37.821Z,1.85
2022-08-26T17:15:04.371Z,2.65
2022-08-26T17:17:30.932Z,1.58
2022-08-26T17:19:58.659Z,2.63
2022-08-26T17:22:25.198Z,2.88
2022-08-26T17:24:51.748Z,3.30
2022-08-26T17:27:18.219Z,3.13
2022-08-26T17:29:44.692Z,1.33
2022-08-26T17:32:11.152Z,4.15
2022-08-26T17:34:37.628Z,0.80
2022-08-26T17:37:04.087Z,2.30
2022-08-26T17:39:30.562Z,2.55
2022-08-26T17:41:57.070Z,2.75
2022-08-26T17:44:23.549Z,1.50
2022-08-26T17:46:50.045Z,4.07
2022-08-26T17:49:16.545Z,1.83
2022-08-26T17:51:44.168Z,3.47
2022-08-26T17:54:10.645Z,2.35
2022-08-26T17:56:37.137Z,0.85
2022-08-26T17:59:04.117Z,2.00
2022-08-26T18:01:31.217Z,2.20
2022-08-26T18:04:00.448Z,0.80
2022-08-26T18:06:27.652Z,2.08
2022-08-26T18:08:54.108Z,2.42
2022-08-26T18:11:20.985Z,2.67
2022-08-26T18:13:47.760Z,1.50
2022-08-26T18:16:14.416Z,0.60
2022-08-26T18:18:40.907Z,3.67
2022-08-26T18:21:07.399Z,3.67
2022-08-26T18:23:33.861Z,2.17
2022-08-26T18:26:00.331Z,3.67
2022-08-26T18:28:26.796Z,2.47
2022-08-26T18:30:53.319Z,1.20
2022-08-26T18:33:23.459Z,1.90
2022-08-26T18:35:49.934Z,1.10
2022-08-26T18:38:16.660Z,4.30
2022-08-26T18:40:43.380Z,1.35
2022-08-26T18:43:10.373Z,2.38
2022-08-26T18:45:36.845Z,0.80
2022-08-26T18:48:03.381Z,2.47
2022-08-26T18:50:29.935Z,4.70
2022-08-26T18:52:56.389Z,1.70
2022-08-26T18:55:22.863Z,2.33
2022-08-26T18:57:49.327Z,0.40
2022-08-26T19:00:15.814Z,2.05
2022-08-26T19:02:42.385Z,1.67
2022-08-26T19:05:18.109Z,1.85
2022-08-26T19:07:44.585Z,2.10
2022-08-26T19:10:14.397Z,1.55
2022-08-26T19:12:40.860Z,2.00
2022-08-26T19:15:07.655Z,1.30
2022-08-26T19:17:34.113Z,1.70
2022-08-26T19:20:00.630Z,1.05
2022-08-26T19:22:27.093Z,0.75
2022-08-26T19:24:53.562Z,2.08
2022-08-26T19:27:20.033Z,2.30
2022-08-26T19:29:46.523Z,1.15
2022-08-26T19:32:12.987Z,1.27
2022-08-26T19:34:39.453Z,4.20
2022-08-26T19:37:05.923Z,2.35
2022-08-26T19:39:32.384Z,1.10
2022-08-26T19:41:58.864Z,1.67
2022-08-26T19:44:25.319Z,1.63
2022-08-26T19:46:51.789Z,2.15
2022-08-26T19:49:18.255Z,1.98
2022-08-26T19:51:44.726Z,2.08
2022-08-26T19:54:11.190Z,1.77
2022-08-26T19:56:37.671Z,1.05
2022-08-26T19:59:04.129Z,1.77
2022-08-26T20:01:30.631Z,2.60
2022-08-26T20:03:57.134Z,1.75
2022-08-26T20:06:23.615Z,1.95
2022-08-26T20:08:50.711Z,2.25
2022-08-26T20:11:17.311Z,0.65
2022-08-26T20:13:43.771Z,3.88
2022-08-26T20:16:10.384Z,2.42
2022-08-26T20:18:36.906Z,2.67
2022-08-26T20:21:03.445Z,1.52
2022-08-26T20:23:29.978Z,2.47
2022-08-26T20:25:56.527Z,2.40
2022-08-26T20:28:23.057Z,3.63
2022-08-26T20:30:49.592Z,3.88
2022-08-26T20:33:16.141Z,2.22
2022-08-26T20:35:42.673Z,4.30
2022-08-26T20:38:09.368Z,3.83
2022-08-26T20:40:36.044Z,3.28
2022-08-26T20:43:02.613Z,2.50
2022-08-26T20:45:29.170Z,5.07
2022-08-26T20:47:55.793Z,3.85
2022-08-26T20:50:22.327Z,4.78
2022-08-26T20:52:48.872Z,4.72
2022-08-26T20:55:15.421Z,2.47
2022-08-26T20:57:41.973Z,5.78
2022-08-26T21:00:08.512Z,3.25
2022-08-26T21:02:35.054Z,3.70
2022-08-26T21:05:01.708Z,2.33
2022-08-26T21:07:28.385Z,1.55
2022-08-26T21:09:56.237Z,2.60
2022-08-26T21:12:22.783Z,4.10
2022-08-26T21:14:49.830Z,1.33
2022-08-26T21:17:16.459Z,2.22
2022-08-26T21:19:42.995Z,2.33
2022-08-26T21:22:09.545Z,2.33
2022-08-26T21:24:36.078Z,2.13
2022-08-26T21:27:02.624Z,2.90
2022-08-26T21:29:29.158Z,2.47
2022-08-26T21:31:55.776Z,3.17
2022-08-26T21:34:22.317Z,1.88
2022-08-26T21:36:48.867Z,2.45
2022-08-26T21:39:15.399Z,1.70
2022-08-26T21:41:41.950Z,1.33
2022-08-26T21:44:08.481Z,2.28
2022-08-26T21:46:35.021Z,3.25
2022-08-26T21:49:01.558Z,2.92
2022-08-26T21:51:28.089Z,1.85
2022-08-26T21:53:54.639Z,4.53
2022-08-26T21:56:21.164Z,2.58
2022-08-26T21:58:47.710Z,1.77
2022-08-26T22:01:14.322Z,1.45
2022-08-26T22:03:47.635Z,1.88
2022-08-26T22:06:14.428Z,4.63
2022-08-26T22:08:40.972Z,3.22
2022-08-26T22:11:07.505Z,2.38
2022-08-26T22:13:34.049Z,2.85
2022-08-26T22:16:00.702Z,2.47
2022-08-26T22:18:27.306Z,1.13
2022-08-26T22:20:53.851Z,2.10
2022-08-26T22:23:20.390Z,2.90
2022-08-26T22:25:46.929Z,1.45
2022-08-26T22:28:13.476Z,3.08
2022-08-26T22:30:40.005Z,1.63
2022-08-26T22:33:06.568Z,0.82
2022-08-26T22:35:33.098Z,1.80
2022-08-26T22:37:59.646Z,1.92
2022-08-26T22:40:26.247Z,2.88
2022-08-26T22:42:55.661Z,1.63
2022-08-26T22:45:26.576Z,2.03
2022-08-26T22:47:53.173Z,1.35
2022-08-26T22:50:19.715Z,1.27
2022-08-26T22:52:46.261Z,2.13
2022-08-26T22:55:12.794Z,1.38
2022-08-26T22:57:39.333Z,1.40
2022-08-26T23:00:05.864Z,1.83
2022-08-26T23:02:32.418Z,2.05
2022-08-26T23:04:58.958Z,2.65
2022-08-26T23:07:25.501Z,1.45
2022-08-26T23:09:52.028Z,3.55
2022-08-26T23:12:18.573Z,1.75
2022-08-26T23:14:45.115Z,1.48
2022-08-26T23:17:11.650Z,1.17
2022-08-26T23:19:38.193Z,2.40
2022-08-26T23:22:04.734Z,1.02
2022-08-26T23:24:31.273Z,3.22
2022-08-26T23:26:57.808Z,2.28
2022-08-26T23:29:24.352Z,2.50
2022-08-26T23:31:50.956Z,1.92
2022-08-26T23:34:17.546Z,2.13
2022-08-26T23:36:44.597Z,1.27
2022-08-26T23:39:12.858Z,3.58
2022-08-26T23:41:39.385Z,2.97
2022-08-26T23:44:05.934Z,2.25
2022-08-26T23:46:32.465Z,1.95
2022-08-26T23:48:59.007Z,2.25
2022-08-26T23:51:25.543Z,3.25
2022-08-26T23:53:52.090Z,2.08
2022-08-26T23:56:18.636Z,2.58
2022-08-26T23:58:45.205Z,1.60
